Main page
METAR-TAF:

METAR-TAF

Airports :

Rantoul National Aviation Center Airport (Frank Elliott Field)

Rantoul, Illinois, United States

latitude: 40-17-37N, longitude: 088-08-33W, elevation: 738 ft

Current weather observation

The report was made 32 minutes ago, at 05:35 UTC
Calm wind
Temperature 39°F
Humidity 70%
Pressure 30.16 in. Hg
Visibility: 10 miles
Clear sky

METAR: KTIP 220535Z AUTO 00000KT 10SM CLR 04/M01 A3016 RMK AO2 T00431013

Time: 01:07 (06:07 UTC)


TAF: missing

Weather observations and forecasts of more than 4000 airports (METAR and TAF reports).

The available stations are represented by yellow and red dots on the map.

Hover mouse over dot to see the name of the station.

Then click to see weather observations and forecasts.

To change the map : click on the green buttons with a black cross to zoom in, on the green button with a dash to zoom out, or on the green arrows for adjacent maps.


METAR-TAF: